sensor_id;sensor_type;location;lat;lon;timestamp;P1;durP1;ratioP1;P2;durP2;ratioP2
12788;SDS011;6458;42.710;23.192;2022-07-03T00:02:15;10.23;;;9.27;;
12788;SDS011;6458;42.710;23.192;2022-07-03T00:04:42;10.83;;;9.73;;
12788;SDS011;6458;42.710;23.192;2022-07-03T00:07:10;11.77;;;9.87;;
12788;SDS011;6458;42.710;23.192;2022-07-03T00:09:37;10.73;;;9.63;;
12788;SDS011;6458;42.710;23.192;2022-07-03T00:12:04;10.60;;;9.50;;
12788;SDS011;6458;42.710;23.192;2022-07-03T00:14:30;11.70;;;10.40;;
12788;SDS011;6458;42.710;23.192;2022-07-03T00:16:57;10.97;;;9.97;;
12788;SDS011;6458;42.710;23.192;2022-07-03T00:19:24;11.50;;;10.40;;
12788;SDS011;6458;42.710;23.192;2022-07-03T00:21:52;11.50;;;10.40;;
12788;SDS011;6458;42.710;23.192;2022-07-03T00:24:23;11.73;;;10.60;;
12788;SDS011;6458;42.710;23.192;2022-07-03T00:26:51;12.87;;;11.10;;
12788;SDS011;6458;42.710;23.192;2022-07-03T00:29:20;11.97;;;10.77;;
12788;SDS011;6458;42.710;23.192;2022-07-03T00:31:47;11.47;;;10.30;;
12788;SDS011;6458;42.710;23.192;2022-07-03T00:34:15;10.90;;;9.90;;
12788;SDS011;6458;42.710;23.192;2022-07-03T00:36:41;10.37;;;9.37;;
12788;SDS011;6458;42.710;23.192;2022-07-03T00:39:08;11.73;;;9.80;;
12788;SDS011;6458;42.710;23.192;2022-07-03T00:41:36;11.00;;;9.90;;
12788;SDS011;6458;42.710;23.192;2022-07-03T00:44:03;10.67;;;9.57;;
12788;SDS011;6458;42.710;23.192;2022-07-03T00:46:30;11.47;;;10.27;;
12788;SDS011;6458;42.710;23.192;2022-07-03T00:48:57;10.73;;;9.63;;
12788;SDS011;6458;42.710;23.192;2022-07-03T00:51:24;10.57;;;9.57;;
12788;SDS011;6458;42.710;23.192;2022-07-03T00:53:52;10.73;;;9.67;;
12788;SDS011;6458;42.710;23.192;2022-07-03T00:56:19;11.77;;;10.57;;
12788;SDS011;6458;42.710;23.192;2022-07-03T00:58:47;10.93;;;9.83;;
12788;SDS011;6458;42.710;23.192;2022-07-03T01:01:16;10.57;;;9.57;;
12788;SDS011;6458;42.710;23.192;2022-07-03T01:03:45;10.57;;;9.53;;
12788;SDS011;6458;42.710;23.192;2022-07-03T01:06:13;11.07;;;9.97;;
12788;SDS011;6458;42.710;23.192;2022-07-03T01:08:41;10.53;;;9.40;;
12788;SDS011;6458;42.710;23.192;2022-07-03T01:11:10;11.83;;;9.27;;
12788;SDS011;6458;42.710;23.192;2022-07-03T01:13:42;10.00;;;9.00;;
12788;SDS011;6458;42.710;23.192;2022-07-03T01:16:14;11.90;;;8.90;;
12788;SDS011;6458;42.710;23.192;2022-07-03T01:18:44;11.60;;;9.57;;
12788;SDS011;6458;42.710;23.192;2022-07-03T01:21:15;10.47;;;9.37;;
12788;SDS011;6458;42.710;23.192;2022-07-03T01:23:56;11.97;;;10.33;;
12788;SDS011;6458;42.710;23.192;2022-07-03T01:26:27;10.37;;;9.37;;
12788;SDS011;6458;42.710;23.192;2022-07-03T01:28:53;10.73;;;9.70;;
12788;SDS011;6458;42.710;23.192;2022-07-03T01:31:21;11.03;;;9.93;;
12788;SDS011;6458;42.710;23.192;2022-07-03T01:33:50;14.87;;;10.23;;
12788;SDS011;6458;42.710;23.192;2022-07-03T01:36:17;16.60;;;10.97;;
12788;SDS011;6458;42.710;23.192;2022-07-03T01:38:45;11.43;;;10.30;;
12788;SDS011;6458;42.710;23.192;2022-07-03T01:41:12;13.30;;;10.53;;
12788;SDS011;6458;42.710;23.192;2022-07-03T01:43:42;12.57;;;11.23;;
12788;SDS011;6458;42.710;23.192;2022-07-03T01:46:10;12.97;;;10.83;;
12788;SDS011;6458;42.710;23.192;2022-07-03T01:48:38;12.23;;;10.47;;
12788;SDS011;6458;42.710;23.192;2022-07-03T01:51:07;11.80;;;10.70;;
12788;SDS011;6458;42.710;23.192;2022-07-03T01:53:35;11.37;;;10.17;;
12788;SDS011;6458;42.710;23.192;2022-07-03T01:56:02;12.53;;;11.27;;
12788;SDS011;6458;42.710;23.192;2022-07-03T01:58:30;11.70;;;10.60;;
12788;SDS011;6458;42.710;23.192;2022-07-03T02:01:00;11.50;;;10.30;;
12788;SDS011;6458;42.710;23.192;2022-07-03T02:03:29;11.27;;;10.07;;
12788;SDS011;6458;42.710;23.192;2022-07-03T02:05:59;12.63;;;9.83;;
12788;SDS011;6458;42.710;23.192;2022-07-03T02:08:29;11.80;;;10.60;;
12788;SDS011;6458;42.710;23.192;2022-07-03T02:11:06;14.67;;;11.37;;
12788;SDS011;6458;42.710;23.192;2022-07-03T02:13:36;15.40;;;10.97;;
12788;SDS011;6458;42.710;23.192;2022-07-03T02:16:05;11.93;;;10.70;;
12788;SDS011;6458;42.710;23.192;2022-07-03T02:18:35;11.97;;;10.53;;
12788;SDS011;6458;42.710;23.192;2022-07-03T02:21:03;12.00;;;10.60;;
12788;SDS011;6458;42.710;23.192;2022-07-03T02:23:31;12.63;;;11.03;;
12788;SDS011;6458;42.710;23.192;2022-07-03T02:26:00;12.87;;;11.50;;
12788;SDS011;6458;42.710;23.192;2022-07-03T02:28:30;12.90;;;11.53;;
12788;SDS011;6458;42.710;23.192;2022-07-03T02:31:02;13.03;;;11.57;;
12788;SDS011;6458;42.710;23.192;2022-07-03T02:33:30;14.17;;;11.17;;
12788;SDS011;6458;42.710;23.192;2022-07-03T02:35:57;12.77;;;11.30;;
12788;SDS011;6458;42.710;23.192;2022-07-03T02:38:24;13.27;;;11.30;;
12788;SDS011;6458;42.710;23.192;2022-07-03T02:40:54;12.10;;;10.87;;
12788;SDS011;6458;42.710;23.192;2022-07-03T02:43:23;12.67;;;10.80;;
12788;SDS011;6458;42.710;23.192;2022-07-03T02:45:56;13.23;;;11.77;;
12788;SDS011;6458;42.710;23.192;2022-07-03T02:48:24;12.30;;;11.00;;
12788;SDS011;6458;42.710;23.192;2022-07-03T02:50:56;12.20;;;10.90;;
12788;SDS011;6458;42.710;23.192;2022-07-03T02:53:25;11.63;;;10.37;;
12788;SDS011;6458;42.710;23.192;2022-07-03T02:55:56;13.37;;;11.93;;
12788;SDS011;6458;42.710;23.192;2022-07-03T03:01:13;13.80;;;11.03;;
12788;SDS011;6458;42.710;23.192;2022-07-03T03:03:43;14.80;;;10.80;;
12788;SDS011;6458;42.710;23.192;2022-07-03T03:06:13;12.83;;;11.53;;
12788;SDS011;6458;42.710;23.192;2022-07-03T03:08:41;11.97;;;10.53;;
12788;SDS011;6458;42.710;23.192;2022-07-03T03:11:14;13.00;;;11.07;;
12788;SDS011;6458;42.710;23.192;2022-07-03T03:13:49;12.43;;;11.03;;
12788;SDS011;6458;42.710;23.192;2022-07-03T03:16:16;12.90;;;11.60;;
12788;SDS011;6458;42.710;23.192;2022-07-03T03:18:43;12.80;;;11.27;;
12788;SDS011;6458;42.710;23.192;2022-07-03T03:21:12;11.77;;;10.53;;
12788;SDS011;6458;42.710;23.192;2022-07-03T03:23:45;12.43;;;11.13;;
12788;SDS011;6458;42.710;23.192;2022-07-03T03:26:14;10.27;;;9.27;;
12788;SDS011;6458;42.710;23.192;2022-07-03T03:28:40;11.77;;;10.63;;
12788;SDS011;6458;42.710;23.192;2022-07-03T03:31:07;15.53;;;10.40;;
12788;SDS011;6458;42.710;23.192;2022-07-03T03:33:36;10.00;;;9.00;;
12788;SDS011;6458;42.710;23.192;2022-07-03T03:36:03;11.97;;;9.87;;
12788;SDS011;6458;42.710;23.192;2022-07-03T03:38:31;10.10;;;9.17;;
12788;SDS011;6458;42.710;23.192;2022-07-03T03:40:58;10.40;;;9.40;;
12788;SDS011;6458;42.710;23.192;2022-07-03T03:43:25;8.43;;;7.60;;
12788;SDS011;6458;42.710;23.192;2022-07-03T03:45:52;10.03;;;9.10;;
12788;SDS011;6458;42.710;23.192;2022-07-03T03:48:18;9.50;;;8.53;;
12788;SDS011;6458;42.710;23.192;2022-07-03T03:50:45;9.10;;;8.37;;
12788;SDS011;6458;42.710;23.192;2022-07-03T03:53:12;10.60;;;9.43;;
12788;SDS011;6458;42.710;23.192;2022-07-03T03:55:53;9.93;;;8.93;;
12788;SDS011;6458;42.710;23.192;2022-07-03T03:58:20;9.17;;;8.37;;
12788;SDS011;6458;42.710;23.192;2022-07-03T04:00:46;9.47;;;8.77;;
12788;SDS011;6458;42.710;23.192;2022-07-03T04:03:13;8.57;;;7.77;;
12788;SDS011;6458;42.710;23.192;2022-07-03T04:05:40;8.50;;;7.83;;
12788;SDS011;6458;42.710;23.192;2022-07-03T04:08:06;8.53;;;7.83;;
12788;SDS011;6458;42.710;23.192;2022-07-03T04:10:33;8.80;;;8.00;;
12788;SDS011;6458;42.710;23.192;2022-07-03T04:13:02;9.43;;;8.50;;
12788;SDS011;6458;42.710;23.192;2022-07-03T04:15:28;8.73;;;7.97;;
12788;SDS011;6458;42.710;23.192;2022-07-03T04:17:55;7.83;;;7.23;;
12788;SDS011;6458;42.710;23.192;2022-07-03T04:20:22;8.90;;;8.20;;
12788;SDS011;6458;42.710;23.192;2022-07-03T04:22:48;8.63;;;8.03;;
12788;SDS011;6458;42.710;23.192;2022-07-03T04:25:15;8.43;;;7.83;;
12788;SDS011;6458;42.710;23.192;2022-07-03T04:27:42;8.00;;;7.40;;
12788;SDS011;6458;42.710;23.192;2022-07-03T04:30:11;8.70;;;7.93;;
12788;SDS011;6458;42.710;23.192;2022-07-03T04:32:38;8.10;;;7.50;;
12788;SDS011;6458;42.710;23.192;2022-07-03T04:35:05;8.10;;;7.55;;
12788;SDS011;6458;42.710;23.192;2022-07-03T04:37:32;7.68;;;7.07;;
12788;SDS011;6458;42.710;23.192;2022-07-03T04:39:59;7.72;;;7.10;;
12788;SDS011;6458;42.710;23.192;2022-07-03T04:42:25;7.55;;;7.05;;
12788;SDS011;6458;42.710;23.192;2022-07-03T04:44:52;7.47;;;6.97;;
12788;SDS011;6458;42.710;23.192;2022-07-03T04:47:20;8.00;;;7.40;;
12788;SDS011;6458;42.710;23.192;2022-07-03T04:49:47;7.35;;;6.82;;
12788;SDS011;6458;42.710;23.192;2022-07-03T04:52:14;8.50;;;7.73;;
12788;SDS011;6458;42.710;23.192;2022-07-03T04:54:42;8.50;;;7.80;;
12788;SDS011;6458;42.710;23.192;2022-07-03T04:57:09;8.27;;;7.47;;
12788;SDS011;6458;42.710;23.192;2022-07-03T04:59:35;9.63;;;7.53;;
12788;SDS011;6458;42.710;23.192;2022-07-03T05:02:02;8.43;;;7.73;;
12788;SDS011;6458;42.710;23.192;2022-07-03T05:04:30;8.63;;;8.00;;
12788;SDS011;6458;42.710;23.192;2022-07-03T05:06:57;9.00;;;8.33;;
12788;SDS011;6458;42.710;23.192;2022-07-03T05:09:24;8.07;;;7.20;;
12788;SDS011;6458;42.710;23.192;2022-07-03T05:11:51;8.23;;;7.47;;
12788;SDS011;6458;42.710;23.192;2022-07-03T05:14:17;9.83;;;7.73;;
12788;SDS011;6458;42.710;23.192;2022-07-03T05:16:44;8.23;;;7.53;;
12788;SDS011;6458;42.710;23.192;2022-07-03T05:19:11;8.40;;;7.80;;
12788;SDS011;6458;42.710;23.192;2022-07-03T05:21:39;8.20;;;7.60;;
12788;SDS011;6458;42.710;23.192;2022-07-03T05:24:06;8.68;;;7.97;;
12788;SDS011;6458;42.710;23.192;2022-07-03T05:26:33;8.27;;;7.68;;
12788;SDS011;6458;42.710;23.192;2022-07-03T05:28:59;8.30;;;7.67;;
12788;SDS011;6458;42.710;23.192;2022-07-03T05:31:26;8.60;;;7.80;;
12788;SDS011;6458;42.710;23.192;2022-07-03T05:33:53;9.00;;;8.30;;
12788;SDS011;6458;42.710;23.192;2022-07-03T05:36:19;9.80;;;9.00;;
12788;SDS011;6458;42.710;23.192;2022-07-03T05:38:48;9.87;;;8.43;;
12788;SDS011;6458;42.710;23.192;2022-07-03T05:41:32;9.47;;;8.57;;
12788;SDS011;6458;42.710;23.192;2022-07-03T05:43:58;9.83;;;8.87;;
12788;SDS011;6458;42.710;23.192;2022-07-03T05:46:25;10.77;;;9.87;;
12788;SDS011;6458;42.710;23.192;2022-07-03T05:48:52;10.83;;;9.77;;
12788;SDS011;6458;42.710;23.192;2022-07-03T05:51:19;10.50;;;9.67;;
12788;SDS011;6458;42.710;23.192;2022-07-03T05:53:45;10.60;;;9.63;;
12788;SDS011;6458;42.710;23.192;2022-07-03T05:56:13;10.00;;;9.20;;
12788;SDS011;6458;42.710;23.192;2022-07-03T05:58:40;10.07;;;9.23;;
12788;SDS011;6458;42.710;23.192;2022-07-03T06:01:07;10.30;;;9.20;;
12788;SDS011;6458;42.710;23.192;2022-07-03T06:03:34;9.20;;;8.40;;
12788;SDS011;6458;42.710;23.192;2022-07-03T06:06:00;9.70;;;8.90;;
12788;SDS011;6458;42.710;23.192;2022-07-03T06:08:27;8.17;;;7.43;;
12788;SDS011;6458;42.710;23.192;2022-07-03T06:10:54;9.60;;;8.90;;
12788;SDS011;6458;42.710;23.192;2022-07-03T06:13:22;8.63;;;7.93;;
12788;SDS011;6458;42.710;23.192;2022-07-03T06:15:49;9.50;;;8.60;;
12788;SDS011;6458;42.710;23.192;2022-07-03T06:18:15;9.17;;;8.47;;
12788;SDS011;6458;42.710;23.192;2022-07-03T06:20:42;8.90;;;8.00;;
12788;SDS011;6458;42.710;23.192;2022-07-03T06:23:09;8.93;;;8.17;;
12788;SDS011;6458;42.710;23.192;2022-07-03T06:25:35;9.33;;;8.63;;
12788;SDS011;6458;42.710;23.192;2022-07-03T06:28:02;8.77;;;8.17;;
12788;SDS011;6458;42.710;23.192;2022-07-03T06:30:30;8.90;;;8.20;;
12788;SDS011;6458;42.710;23.192;2022-07-03T06:32:57;8.73;;;8.03;;
12788;SDS011;6458;42.710;23.192;2022-07-03T06:35:24;8.33;;;7.63;;
12788;SDS011;6458;42.710;23.192;2022-07-03T06:37:50;8.90;;;8.20;;
12788;SDS011;6458;42.710;23.192;2022-07-03T06:40:17;8.90;;;8.10;;
12788;SDS011;6458;42.710;23.192;2022-07-03T06:42:44;8.17;;;7.57;;
12788;SDS011;6458;42.710;23.192;2022-07-03T06:45:10;8.60;;;7.83;;
12788;SDS011;6458;42.710;23.192;2022-07-03T06:47:39;8.40;;;7.80;;
12788;SDS011;6458;42.710;23.192;2022-07-03T06:50:06;9.27;;;8.57;;
12788;SDS011;6458;42.710;23.192;2022-07-03T06:52:33;8.67;;;7.97;;
12788;SDS011;6458;42.710;23.192;2022-07-03T06:54:59;8.70;;;8.10;;
12788;SDS011;6458;42.710;23.192;2022-07-03T06:57:26;9.17;;;8.47;;
12788;SDS011;6458;42.710;23.192;2022-07-03T06:59:53;9.30;;;8.60;;
12788;SDS011;6458;42.710;23.192;2022-07-03T07:02:19;9.50;;;8.80;;
12788;SDS011;6458;42.710;23.192;2022-07-03T07:04:47;9.70;;;8.90;;
12788;SDS011;6458;42.710;23.192;2022-07-03T07:07:14;8.83;;;7.93;;
12788;SDS011;6458;42.710;23.192;2022-07-03T07:09:41;9.90;;;9.00;;
12788;SDS011;6458;42.710;23.192;2022-07-03T07:12:08;8.63;;;8.03;;
12788;SDS011;6458;42.710;23.192;2022-07-03T07:14:35;9.60;;;8.90;;
12788;SDS011;6458;42.710;23.192;2022-07-03T07:17:01;9.37;;;8.67;;
12788;SDS011;6458;42.710;23.192;2022-07-03T07:19:28;9.03;;;8.33;;
12788;SDS011;6458;42.710;23.192;2022-07-03T07:21:56;9.70;;;8.90;;
12788;SDS011;6458;42.710;23.192;2022-07-03T07:24:23;9.60;;;8.80;;
12788;SDS011;6458;42.710;23.192;2022-07-03T07:26:49;9.70;;;8.83;;
12788;SDS011;6458;42.710;23.192;2022-07-03T07:29:16;9.47;;;8.67;;
12788;SDS011;6458;42.710;23.192;2022-07-03T07:31:43;9.37;;;8.67;;
12788;SDS011;6458;42.710;23.192;2022-07-03T07:34:09;9.17;;;8.47;;
12788;SDS011;6458;42.710;23.192;2022-07-03T07:36:37;9.90;;;9.10;;
12788;SDS011;6458;42.710;23.192;2022-07-03T07:39:05;9.70;;;8.73;;
12788;SDS011;6458;42.710;23.192;2022-07-03T07:41:32;10.80;;;9.73;;
12788;SDS011;6458;42.710;23.192;2022-07-03T07:43:58;10.20;;;9.30;;
12788;SDS011;6458;42.710;23.192;2022-07-03T07:46:25;10.33;;;9.53;;
12788;SDS011;6458;42.710;23.192;2022-07-03T07:48:52;10.70;;;9.73;;
12788;SDS011;6458;42.710;23.192;2022-07-03T07:51:18;10.43;;;9.50;;
12788;SDS011;6458;42.710;23.192;2022-07-03T07:53:45;11.43;;;10.43;;
12788;SDS011;6458;42.710;23.192;2022-07-03T07:56:13;9.93;;;8.90;;
12788;SDS011;6458;42.710;23.192;2022-07-03T07:58:40;10.03;;;9.13;;
12788;SDS011;6458;42.710;23.192;2022-07-03T08:01:07;10.70;;;9.77;;
12788;SDS011;6458;42.710;23.192;2022-07-03T08:03:51;11.17;;;10.07;;
12788;SDS011;6458;42.710;23.192;2022-07-03T08:06:35;10.63;;;9.70;;
12788;SDS011;6458;42.710;23.192;2022-07-03T08:09:02;11.17;;;10.27;;
12788;SDS011;6458;42.710;23.192;2022-07-03T08:11:30;10.97;;;10.07;;
12788;SDS011;6458;42.710;23.192;2022-07-03T08:13:56;10.70;;;9.80;;
12788;SDS011;6458;42.710;23.192;2022-07-03T08:16:23;9.97;;;9.20;;
12788;SDS011;6458;42.710;23.192;2022-07-03T08:18:50;10.80;;;9.80;;
12788;SDS011;6458;42.710;23.192;2022-07-03T08:21:17;10.47;;;9.57;;
12788;SDS011;6458;42.710;23.192;2022-07-03T08:23:44;10.70;;;9.73;;
12788;SDS011;6458;42.710;23.192;2022-07-03T08:26:11;10.23;;;9.23;;
12788;SDS011;6458;42.710;23.192;2022-07-03T08:28:39;10.87;;;9.87;;
12788;SDS011;6458;42.710;23.192;2022-07-03T08:31:06;9.93;;;9.13;;
12788;SDS011;6458;42.710;23.192;2022-07-03T08:33:32;10.03;;;9.03;;
12788;SDS011;6458;42.710;23.192;2022-07-03T08:35:59;9.97;;;9.07;;
12788;SDS011;6458;42.710;23.192;2022-07-03T08:38:29;10.35;;;9.35;;
12788;SDS011;6458;42.710;23.192;2022-07-03T08:40:58;10.00;;;9.20;;
12788;SDS011;6458;42.710;23.192;2022-07-03T08:43:25;9.73;;;9.00;;
12788;SDS011;6458;42.710;23.192;2022-07-03T08:45:53;10.20;;;9.40;;
12788;SDS011;6458;42.710;23.192;2022-07-03T08:48:21;10.80;;;9.80;;
12788;SDS011;6458;42.710;23.192;2022-07-03T08:50:48;10.83;;;9.73;;
12788;SDS011;6458;42.710;23.192;2022-07-03T08:53:16;9.90;;;9.00;;
12788;SDS011;6458;42.710;23.192;2022-07-03T08:55:43;9.90;;;9.03;;
12788;SDS011;6458;42.710;23.192;2022-07-03T08:58:12;9.87;;;9.17;;
12788;SDS011;6458;42.710;23.192;2022-07-03T09:00:39;10.00;;;9.10;;
12788;SDS011;6458;42.710;23.192;2022-07-03T09:03:09;8.47;;;7.87;;
12788;SDS011;6458;42.710;23.192;2022-07-03T09:05:36;9.93;;;8.53;;
12788;SDS011;6458;42.710;23.192;2022-07-03T09:08:05;9.03;;;8.33;;
12788;SDS011;6458;42.710;23.192;2022-07-03T09:10:32;7.87;;;7.27;;
12788;SDS011;6458;42.710;23.192;2022-07-03T09:12:59;8.00;;;7.30;;
12788;SDS011;6458;42.710;23.192;2022-07-03T09:15:26;8.30;;;7.70;;
12788;SDS011;6458;42.710;23.192;2022-07-03T09:17:56;8.77;;;8.07;;
12788;SDS011;6458;42.710;23.192;2022-07-03T09:20:28;8.67;;;7.93;;
12788;SDS011;6458;42.710;23.192;2022-07-03T09:22:57;8.17;;;7.50;;
12788;SDS011;6458;42.710;23.192;2022-07-03T09:25:34;8.80;;;8.10;;
12788;SDS011;6458;42.710;23.192;2022-07-03T09:28:01;8.87;;;8.07;;
12788;SDS011;6458;42.710;23.192;2022-07-03T09:30:27;8.83;;;7.93;;
12788;SDS011;6458;42.710;23.192;2022-07-03T09:32:54;8.73;;;7.87;;
12788;SDS011;6458;42.710;23.192;2022-07-03T09:35:21;7.83;;;7.27;;
12788;SDS011;6458;42.710;23.192;2022-07-03T09:37:51;8.37;;;7.70;;
12788;SDS011;6458;42.710;23.192;2022-07-03T09:40:18;8.33;;;7.63;;
12788;SDS011;6458;42.710;23.192;2022-07-03T09:43:00;7.63;;;6.90;;
12788;SDS011;6458;42.710;23.192;2022-07-03T09:45:28;7.27;;;6.60;;
12788;SDS011;6458;42.710;23.192;2022-07-03T09:48:20;7.53;;;6.90;;
12788;SDS011;6458;42.710;23.192;2022-07-03T09:50:47;7.27;;;6.77;;
12788;SDS011;6458;42.710;23.192;2022-07-03T09:53:15;6.57;;;6.17;;
12788;SDS011;6458;42.710;23.192;2022-07-03T09:55:41;7.00;;;6.40;;
12788;SDS011;6458;42.710;23.192;2022-07-03T09:58:21;7.13;;;6.50;;
12788;SDS011;6458;42.710;23.192;2022-07-03T10:00:48;6.18;;;5.78;;
12788;SDS011;6458;42.710;23.192;2022-07-03T10:03:15;6.10;;;5.70;;
12788;SDS011;6458;42.710;23.192;2022-07-03T10:05:46;6.05;;;5.55;;
12788;SDS011;6458;42.710;23.192;2022-07-03T10:08:14;6.73;;;6.20;;
12788;SDS011;6458;42.710;23.192;2022-07-03T10:10:43;5.67;;;5.37;;
12788;SDS011;6458;42.710;23.192;2022-07-03T10:13:10;6.03;;;5.63;;
12788;SDS011;6458;42.710;23.192;2022-07-03T10:15:37;6.17;;;5.70;;
12788;SDS011;6458;42.710;23.192;2022-07-03T10:18:04;5.90;;;5.60;;
12788;SDS011;6458;42.710;23.192;2022-07-03T10:20:33;6.20;;;5.70;;
12788;SDS011;6458;42.710;23.192;2022-07-03T10:23:01;5.90;;;5.47;;
12788;SDS011;6458;42.710;23.192;2022-07-03T10:25:30;5.83;;;5.43;;
12788;SDS011;6458;42.710;23.192;2022-07-03T10:27:57;6.00;;;5.57;;
12788;SDS011;6458;42.710;23.192;2022-07-03T10:30:24;6.23;;;5.83;;
12788;SDS011;6458;42.710;23.192;2022-07-03T10:32:51;5.50;;;5.20;;
12788;SDS011;6458;42.710;23.192;2022-07-03T10:35:19;5.53;;;5.23;;
12788;SDS011;6458;42.710;23.192;2022-07-03T10:37:56;5.97;;;5.53;;
12788;SDS011;6458;42.710;23.192;2022-07-03T10:40:27;6.23;;;5.83;;
12788;SDS011;6458;42.710;23.192;2022-07-03T10:43:21;6.47;;;6.00;;
12788;SDS011;6458;42.710;23.192;2022-07-03T10:46:08;6.20;;;5.80;;
12788;SDS011;6458;42.710;23.192;2022-07-03T10:48:49;5.90;;;5.50;;
12788;SDS011;6458;42.710;23.192;2022-07-03T10:51:16;6.60;;;6.10;;
12788;SDS011;6458;42.710;23.192;2022-07-03T10:53:43;6.27;;;5.87;;
12788;SDS011;6458;42.710;23.192;2022-07-03T10:56:10;5.90;;;5.60;;
12788;SDS011;6458;42.710;23.192;2022-07-03T11:01:26;5.07;;;4.70;;
12788;SDS011;6458;42.710;23.192;2022-07-03T11:03:53;5.67;;;5.27;;
12788;SDS011;6458;42.710;23.192;2022-07-03T11:06:21;5.70;;;5.30;;
12788;SDS011;6458;42.710;23.192;2022-07-03T11:09:00;6.10;;;5.67;;
12788;SDS011;6458;42.710;23.192;2022-07-03T11:11:34;5.60;;;5.10;;
12788;SDS011;6458;42.710;23.192;2022-07-03T11:14:18;5.70;;;5.10;;
12788;SDS011;6458;42.710;23.192;2022-07-03T11:16:46;5.73;;;5.33;;
12788;SDS011;6458;42.710;23.192;2022-07-03T11:19:13;5.97;;;5.57;;
12788;SDS011;6458;42.710;23.192;2022-07-03T11:21:40;5.10;;;4.70;;
12788;SDS011;6458;42.710;23.192;2022-07-03T11:24:17;5.37;;;5.07;;
12788;SDS011;6458;42.710;23.192;2022-07-03T11:26:45;4.60;;;4.40;;
12788;SDS011;6458;42.710;23.192;2022-07-03T11:29:24;5.00;;;4.60;;
12788;SDS011;6458;42.710;23.192;2022-07-03T11:31:53;4.93;;;4.43;;
12788;SDS011;6458;42.710;23.192;2022-07-03T11:34:19;4.63;;;4.43;;
12788;SDS011;6458;42.710;23.192;2022-07-03T11:36:46;5.07;;;4.67;;
12788;SDS011;6458;42.710;23.192;2022-07-03T11:39:13;4.50;;;4.30;;
12788;SDS011;6458;42.710;23.192;2022-07-03T11:41:41;4.47;;;4.27;;
12788;SDS011;6458;42.710;23.192;2022-07-03T11:44:09;4.70;;;4.50;;
12788;SDS011;6458;42.710;23.192;2022-07-03T11:46:37;4.47;;;4.27;;
12788;SDS011;6458;42.710;23.192;2022-07-03T11:49:06;5.07;;;4.60;;
12788;SDS011;6458;42.710;23.192;2022-07-03T11:51:32;4.43;;;4.23;;
12788;SDS011;6458;42.710;23.192;2022-07-03T11:53:59;5.37;;;4.77;;
12788;SDS011;6458;42.710;23.192;2022-07-03T11:56:26;5.20;;;4.90;;
12788;SDS011;6458;42.710;23.192;2022-07-03T11:58:53;5.17;;;4.87;;
12788;SDS011;6458;42.710;23.192;2022-07-03T12:01:30;5.17;;;4.77;;
12788;SDS011;6458;42.710;23.192;2022-07-03T12:04:04;5.47;;;5.07;;
12788;SDS011;6458;42.710;23.192;2022-07-03T12:06:36;4.70;;;4.43;;
12788;SDS011;6458;42.710;23.192;2022-07-03T12:09:03;5.43;;;5.03;;
12788;SDS011;6458;42.710;23.192;2022-07-03T12:11:30;4.90;;;4.60;;
12788;SDS011;6458;42.710;23.192;2022-07-03T12:13:56;5.80;;;5.27;;
12788;SDS011;6458;42.710;23.192;2022-07-03T12:16:31;5.57;;;5.23;;
12788;SDS011;6458;42.710;23.192;2022-07-03T12:19:02;5.57;;;5.10;;
12788;SDS011;6458;42.710;23.192;2022-07-03T12:21:34;5.30;;;4.90;;
12788;SDS011;6458;42.710;23.192;2022-07-03T12:24:08;5.17;;;4.87;;
12788;SDS011;6458;42.710;23.192;2022-07-03T12:26:35;5.20;;;4.90;;
12788;SDS011;6458;42.710;23.192;2022-07-03T12:29:02;5.90;;;5.40;;
12788;SDS011;6458;42.710;23.192;2022-07-03T12:31:29;5.43;;;5.13;;
12788;SDS011;6458;42.710;23.192;2022-07-03T12:33:56;5.60;;;5.10;;
12788;SDS011;6458;42.710;23.192;2022-07-03T12:36:23;5.43;;;5.03;;
12788;SDS011;6458;42.710;23.192;2022-07-03T12:38:51;5.87;;;5.47;;
12788;SDS011;6458;42.710;23.192;2022-07-03T12:41:20;5.30;;;4.90;;
12788;SDS011;6458;42.710;23.192;2022-07-03T12:43:47;4.97;;;4.77;;
12788;SDS011;6458;42.710;23.192;2022-07-03T12:46:20;5.30;;;5.00;;
12788;SDS011;6458;42.710;23.192;2022-07-03T12:48:48;5.40;;;5.00;;
12788;SDS011;6458;42.710;23.192;2022-07-03T12:51:15;5.20;;;4.90;;
12788;SDS011;6458;42.710;23.192;2022-07-03T12:53:42;5.73;;;5.43;;
12788;SDS011;6458;42.710;23.192;2022-07-03T12:56:09;5.27;;;4.97;;
12788;SDS011;6458;42.710;23.192;2022-07-03T12:58:38;5.23;;;4.93;;
12788;SDS011;6458;42.710;23.192;2022-07-03T13:01:26;5.37;;;5.07;;
12788;SDS011;6458;42.710;23.192;2022-07-03T13:03:53;5.67;;;5.27;;
12788;SDS011;6458;42.710;23.192;2022-07-03T13:06:20;5.67;;;5.27;;
12788;SDS011;6458;42.710;23.192;2022-07-03T13:08:54;5.30;;;4.97;;
12788;SDS011;6458;42.710;23.192;2022-07-03T13:11:25;4.87;;;4.60;;
12788;SDS011;6458;42.710;23.192;2022-07-03T13:13:53;5.40;;;4.97;;
12788;SDS011;6458;42.710;23.192;2022-07-03T13:16:24;5.27;;;4.97;;
12788;SDS011;6458;42.710;23.192;2022-07-03T13:18:57;5.67;;;5.23;;
12788;SDS011;6458;42.710;23.192;2022-07-03T13:21:24;5.60;;;5.20;;
12788;SDS011;6458;42.710;23.192;2022-07-03T13:23:51;5.80;;;5.40;;
12788;SDS011;6458;42.710;23.192;2022-07-03T13:26:17;5.87;;;5.40;;
12788;SDS011;6458;42.710;23.192;2022-07-03T13:28:44;5.43;;;5.13;;
12788;SDS011;6458;42.710;23.192;2022-07-03T13:31:12;5.30;;;5.00;;
12788;SDS011;6458;42.710;23.192;2022-07-03T13:33:39;6.07;;;5.67;;
12788;SDS011;6458;42.710;23.192;2022-07-03T13:36:06;5.57;;;5.13;;
12788;SDS011;6458;42.710;23.192;2022-07-03T13:38:32;5.70;;;5.30;;
12788;SDS011;6458;42.710;23.192;2022-07-03T13:40:59;5.83;;;5.53;;
12788;SDS011;6458;42.710;23.192;2022-07-03T13:43:26;5.97;;;5.37;;
12788;SDS011;6458;42.710;23.192;2022-07-03T13:45:52;5.27;;;4.97;;
12788;SDS011;6458;42.710;23.192;2022-07-03T13:48:20;5.50;;;5.20;;
12788;SDS011;6458;42.710;23.192;2022-07-03T13:50:47;5.83;;;5.50;;
12788;SDS011;6458;42.710;23.192;2022-07-03T13:53:14;5.53;;;5.23;;
12788;SDS011;6458;42.710;23.192;2022-07-03T13:55:40;6.30;;;5.90;;
12788;SDS011;6458;42.710;23.192;2022-07-03T13:58:07;6.07;;;5.67;;
12788;SDS011;6458;42.710;23.192;2022-07-03T14:00:34;6.03;;;5.63;;
12788;SDS011;6458;42.710;23.192;2022-07-03T14:03:01;6.43;;;5.93;;
12788;SDS011;6458;42.710;23.192;2022-07-03T14:05:29;6.23;;;5.73;;
12788;SDS011;6458;42.710;23.192;2022-07-03T14:07:56;6.37;;;5.90;;
12788;SDS011;6458;42.710;23.192;2022-07-03T14:10:23;6.43;;;5.70;;
12788;SDS011;6458;42.710;23.192;2022-07-03T14:12:50;6.10;;;5.70;;
12788;SDS011;6458;42.710;23.192;2022-07-03T14:15:17;6.63;;;6.13;;
12788;SDS011;6458;42.710;23.192;2022-07-03T14:17:44;6.10;;;5.80;;
12788;SDS011;6458;42.710;23.192;2022-07-03T14:20:11;8.13;;;6.30;;
12788;SDS011;6458;42.710;23.192;2022-07-03T14:22:40;6.03;;;5.63;;
12788;SDS011;6458;42.710;23.192;2022-07-03T14:25:07;5.87;;;5.57;;
12788;SDS011;6458;42.710;23.192;2022-07-03T14:27:34;6.17;;;5.57;;
12788;SDS011;6458;42.710;23.192;2022-07-03T14:30:18;6.27;;;5.77;;
12788;SDS011;6458;42.710;23.192;2022-07-03T14:33:11;6.30;;;5.80;;
12788;SDS011;6458;42.710;23.192;2022-07-03T14:35:37;6.67;;;6.17;;
12788;SDS011;6458;42.710;23.192;2022-07-03T14:38:05;6.60;;;6.13;;
12788;SDS011;6458;42.710;23.192;2022-07-03T14:40:32;6.70;;;6.30;;
12788;SDS011;6458;42.710;23.192;2022-07-03T14:42:59;6.23;;;5.57;;
12788;SDS011;6458;42.710;23.192;2022-07-03T14:45:26;6.63;;;6.10;;
12788;SDS011;6458;42.710;23.192;2022-07-03T14:47:52;7.13;;;6.53;;
12788;SDS011;6458;42.710;23.192;2022-07-03T14:50:19;6.90;;;6.40;;
12788;SDS011;6458;42.710;23.192;2022-07-03T14:52:46;11.53;;;5.87;;
12788;SDS011;6458;42.710;23.192;2022-07-03T14:55:15;6.50;;;6.00;;